createdAt,value
2017-07-24T00:01:04.865Z,17.30
2017-07-24T00:03:32.464Z,17.30
2017-07-24T00:06:00.049Z,17.30
2017-07-24T00:08:27.606Z,17.30
2017-07-24T00:10:55.179Z,17.30
2017-07-24T00:13:22.742Z,17.20
2017-07-24T00:15:50.324Z,17.20
2017-07-24T00:18:18.733Z,17.20
2017-07-24T00:20:46.336Z,17.20
2017-07-24T00:23:13.948Z,17.20
2017-07-24T00:25:41.553Z,17.20
2017-07-24T00:28:09.127Z,17.20
2017-07-24T00:30:36.722Z,17.10
2017-07-24T00:33:05.057Z,17.10
2017-07-24T00:35:32.660Z,17.10
2017-07-24T00:38:00.239Z,17.10
2017-07-24T00:40:27.805Z,17.10
2017-07-24T00:42:55.402Z,17.10
2017-07-24T00:45:22.960Z,17.10
2017-07-24T00:47:50.554Z,17.10
2017-07-24T00:50:18.138Z,17.10
2017-07-24T00:52:45.874Z,17.10
2017-07-24T00:55:13.590Z,17.20
2017-07-24T00:57:41.224Z,17.20
2017-07-24T01:00:08.833Z,17.20
2017-07-24T01:02:36.463Z,17.20
2017-07-24T01:05:04.071Z,17.20
2017-07-24T01:07:32.425Z,17.20
2017-07-24T01:10:00.014Z,17.20
2017-07-24T01:12:27.583Z,17.20
2017-07-24T01:14:55.148Z,17.20
2017-07-24T01:17:22.738Z,17.20
2017-07-24T01:19:50.321Z,17.20
2017-07-24T01:22:17.913Z,17.20
2017-07-24T01:24:45.506Z,17.20
2017-07-24T01:27:13.097Z,17.20
2017-07-24T01:29:40.675Z,17.20
2017-07-24T01:32:09.046Z,17.20
2017-07-24T01:34:37.392Z,17.20
2017-07-24T01:37:04.964Z,17.20
2017-07-24T01:39:32.534Z,17.20
2017-07-24T01:42:00.126Z,17.10
2017-07-24T01:44:27.732Z,17.10
2017-07-24T01:46:55.329Z,17.10
2017-07-24T01:49:22.941Z,17.10
2017-07-24T01:51:50.548Z,17.10
2017-07-24T01:54:18.909Z,17.00
2017-07-24T01:56:46.517Z,16.90
2017-07-24T01:59:14.193Z,16.90
2017-07-24T02:01:42.087Z,16.90
2017-07-24T02:04:09.671Z,16.90
2017-07-24T02:06:38.020Z,16.90
2017-07-24T02:09:05.611Z,16.90
2017-07-24T02:11:33.956Z,16.90
2017-07-24T02:14:01.560Z,16.90
2017-07-24T02:16:29.133Z,16.90
2017-07-24T02:18:56.720Z,16.90
2017-07-24T02:21:24.301Z,16.90
2017-07-24T02:23:51.898Z,16.90
2017-07-24T02:26:19.472Z,16.90
2017-07-24T02:28:47.044Z,16.90
2017-07-24T02:31:14.682Z,16.90
2017-07-24T02:33:42.282Z,16.80
2017-07-24T02:36:09.860Z,16.80
2017-07-24T02:38:37.457Z,16.80
2017-07-24T02:41:05.043Z,16.80
2017-07-24T02:43:32.623Z,16.80
2017-07-24T02:46:00.200Z,16.80
2017-07-24T02:48:27.789Z,16.80
2017-07-24T02:50:55.378Z,16.80
2017-07-24T02:53:22.986Z,16.80
2017-07-24T02:55:51.342Z,16.80
2017-07-24T02:58:18.938Z,16.80
2017-07-24T03:00:47.275Z,16.90
2017-07-24T03:03:14.870Z,16.80
2017-07-24T03:05:43.205Z,16.90
2017-07-24T03:08:10.802Z,16.90
2017-07-24T03:10:39.154Z,16.90
2017-07-24T03:13:06.745Z,16.90
2017-07-24T03:15:35.095Z,16.90
2017-07-24T03:18:02.685Z,16.90
2017-07-24T03:20:31.042Z,16.90
2017-07-24T03:22:58.650Z,16.90
2017-07-24T03:25:26.240Z,16.90
2017-07-24T03:27:53.844Z,16.90
2017-07-24T03:30:21.414Z,16.90
2017-07-24T03:32:49.275Z,16.80
2017-07-24T03:35:16.843Z,16.80
2017-07-24T03:37:44.461Z,16.80
2017-07-24T03:40:12.092Z,16.80
2017-07-24T03:42:39.672Z,16.80
2017-07-24T03:45:07.266Z,16.80
2017-07-24T03:47:34.836Z,16.80
2017-07-24T03:50:02.415Z,16.80
2017-07-24T03:52:30.055Z,16.80
2017-07-24T03:54:57.669Z,16.80
2017-07-24T03:57:25.259Z,16.80
2017-07-24T03:59:52.863Z,16.80
2017-07-24T04:02:20.440Z,16.80
2017-07-24T04:04:48.024Z,16.80
2017-07-24T04:07:16.355Z,16.80
2017-07-24T04:09:43.939Z,16.70
2017-07-24T04:12:11.510Z,16.80
2017-07-24T04:14:39.094Z,16.80
2017-07-24T04:17:06.657Z,16.80
2017-07-24T04:19:34.253Z,16.80
2017-07-24T04:22:01.824Z,16.80
2017-07-24T04:24:29.407Z,16.80
2017-07-24T04:26:56.994Z,16.80
2017-07-24T04:29:24.584Z,16.80
2017-07-24T04:31:52.169Z,16.80
2017-07-24T04:34:19.786Z,16.80
2017-07-24T04:36:47.359Z,16.90
2017-07-24T04:39:14.953Z,16.90
2017-07-24T04:41:42.521Z,16.90
2017-07-24T04:44:10.115Z,16.90
2017-07-24T04:46:37.685Z,17.00
2017-07-24T04:49:05.278Z,17.00
2017-07-24T04:51:32.852Z,17.00
2017-07-24T04:54:00.455Z,17.00
2017-07-24T04:56:28.035Z,17.00
2017-07-24T04:58:55.645Z,17.00
2017-07-24T05:01:24.003Z,17.00
2017-07-24T05:03:51.591Z,17.00
2017-07-24T05:06:19.203Z,17.10
2017-07-24T05:08:46.772Z,17.10
2017-07-24T05:11:14.345Z,17.10
2017-07-24T05:13:43.033Z,17.10
2017-07-24T05:16:10.632Z,17.10
2017-07-24T05:18:38.214Z,17.10
2017-07-24T05:21:05.801Z,17.10
2017-07-24T05:23:33.368Z,17.10
2017-07-24T05:26:00.975Z,17.10
2017-07-24T05:28:28.558Z,17.20
2017-07-24T05:30:56.162Z,17.30
2017-07-24T05:33:23.755Z,17.30
2017-07-24T05:35:51.343Z,17.40
2017-07-24T05:38:18.927Z,17.40
2017-07-24T05:40:47.295Z,17.60
2017-07-24T05:43:14.890Z,17.60
2017-07-24T05:45:42.479Z,17.70
2017-07-24T05:48:10.065Z,17.80
2017-07-24T05:50:37.663Z,17.80
2017-07-24T05:53:06.014Z,17.90
2017-07-24T05:55:33.599Z,17.90
2017-07-24T05:58:01.955Z,17.90
2017-07-24T06:00:29.553Z,17.90
2017-07-24T06:02:57.117Z,17.90
2017-07-24T06:05:24.717Z,18.00
2017-07-24T06:07:52.278Z,18.00
2017-07-24T06:10:19.878Z,17.90
2017-07-24T06:12:47.627Z,17.90
2017-07-24T06:15:15.260Z,17.90
2017-07-24T06:17:42.831Z,17.90
2017-07-24T06:20:10.403Z,17.90
2017-07-24T06:22:39.088Z,17.80
2017-07-24T06:25:07.444Z,17.80
2017-07-24T06:27:35.032Z,17.70
2017-07-24T06:30:02.631Z,17.70
2017-07-24T06:32:30.201Z,17.60
2017-07-24T06:34:58.045Z,17.60
2017-07-24T06:37:25.638Z,17.70
2017-07-24T06:39:53.219Z,17.70
2017-07-24T06:42:21.583Z,17.80
2017-07-24T06:44:49.182Z,17.80
2017-07-24T06:47:16.768Z,17.80
2017-07-24T06:49:44.841Z,17.90
2017-07-24T06:52:12.416Z,17.90
2017-07-24T06:54:40.002Z,17.90
2017-07-24T06:57:07.620Z,17.90
2017-07-24T06:59:35.196Z,17.90
2017-07-24T07:02:02.833Z,17.90
2017-07-24T07:04:30.402Z,17.90
2017-07-24T07:06:58.033Z,17.90
2017-07-24T07:09:25.606Z,18.00
2017-07-24T07:11:53.271Z,18.00
2017-07-24T07:14:20.861Z,18.10
2017-07-24T07:16:49.253Z,18.20
2017-07-24T07:19:16.847Z,18.20
2017-07-24T07:21:44.466Z,18.30
2017-07-24T07:24:12.066Z,18.40
2017-07-24T07:26:39.663Z,18.50
2017-07-24T07:29:07.256Z,18.50
2017-07-24T07:31:35.608Z,18.50
2017-07-24T07:34:03.178Z,18.40
2017-07-24T07:36:30.800Z,18.40
2017-07-24T07:38:58.425Z,18.30
2017-07-24T07:41:26.044Z,18.30
2017-07-24T07:43:53.633Z,18.30
2017-07-24T07:46:22.023Z,18.30
2017-07-24T07:48:51.448Z,18.40
2017-07-24T07:51:19.940Z,18.40
2017-07-24T07:53:47.926Z,18.40
2017-07-24T07:56:16.041Z,18.50
2017-07-24T07:58:44.405Z,18.50
2017-07-24T08:01:12.012Z,18.50
2017-07-24T08:03:39.644Z,18.60
2017-07-24T08:06:08.280Z,18.60
2017-07-24T08:08:36.657Z,18.60
2017-07-24T08:11:04.304Z,18.60
2017-07-24T08:13:32.389Z,18.60
2017-07-24T08:15:59.955Z,18.60
2017-07-24T08:18:27.553Z,18.50
2017-07-24T08:20:55.924Z,18.40
2017-07-24T08:23:24.296Z,18.40
2017-07-24T08:25:51.904Z,18.40
2017-07-24T08:28:19.515Z,18.30
2017-07-24T08:30:47.096Z,18.40
2017-07-24T08:33:14.705Z,18.40
2017-07-24T08:35:42.307Z,18.30
2017-07-24T08:38:10.760Z,18.20
2017-07-24T08:40:38.363Z,18.20
2017-07-24T08:43:05.976Z,18.20
2017-07-24T08:45:33.556Z,18.30
2017-07-24T08:48:01.477Z,18.20
2017-07-24T08:50:29.082Z,18.30
2017-07-24T08:52:57.486Z,18.40
2017-07-24T08:55:25.048Z,18.40
2017-07-24T08:57:52.941Z,18.40
2017-07-24T09:00:20.530Z,18.40
2017-07-24T09:02:48.574Z,18.50
2017-07-24T09:05:16.192Z,18.40
2017-07-24T09:07:43.796Z,18.50
2017-07-24T09:10:11.370Z,18.50
2017-07-24T09:12:39.383Z,18.60
2017-07-24T09:15:06.944Z,18.70
2017-07-24T09:17:34.509Z,18.80
2017-07-24T09:20:02.073Z,18.80
2017-07-24T09:22:30.162Z,18.70
2017-07-24T09:24:57.758Z,18.60
2017-07-24T09:27:25.378Z,18.40
2017-07-24T09:29:52.974Z,18.20
2017-07-24T09:32:20.547Z,18.10
2017-07-24T09:34:48.909Z,17.90
2017-07-24T09:37:16.908Z,17.90
2017-07-24T09:39:44.507Z,18.00
2017-07-24T09:42:12.086Z,18.00
2017-07-24T09:44:39.692Z,18.10
2017-07-24T09:47:07.988Z,18.30
2017-07-24T09:49:35.598Z,18.30
2017-07-24T09:52:03.172Z,18.30
2017-07-24T09:54:31.525Z,18.30
2017-07-24T09:56:59.133Z,18.30
2017-07-24T09:59:26.732Z,18.30
2017-07-24T10:01:54.348Z,18.30
2017-07-24T10:04:21.976Z,18.30
2017-07-24T10:06:49.773Z,18.30
2017-07-24T10:09:17.393Z,18.30
2017-07-24T10:11:45.038Z,18.30
2017-07-24T10:14:12.613Z,18.30
2017-07-24T10:16:40.990Z,18.30
2017-07-24T10:19:09.045Z,18.30
2017-07-24T10:21:36.625Z,18.30
2017-07-24T10:24:05.126Z,18.20
2017-07-24T10:26:33.476Z,18.10
2017-07-24T10:29:01.093Z,18.10
2017-07-24T10:31:28.683Z,18.10
2017-07-24T10:33:56.294Z,18.10
2017-07-24T10:36:23.898Z,18.20
2017-07-24T10:38:51.527Z,18.00
2017-07-24T10:41:19.506Z,18.00
2017-07-24T10:43:47.509Z,18.10
2017-07-24T10:46:15.086Z,18.00
2017-07-24T10:48:43.425Z,18.10
2017-07-24T10:51:11.037Z,18.10
2017-07-24T10:53:38.639Z,18.10
2017-07-24T10:56:06.224Z,18.10
2017-07-24T10:58:33.820Z,18.10
2017-07-24T11:01:01.404Z,17.90
2017-07-24T11:03:29.006Z,18.00
2017-07-24T11:05:56.582Z,17.90
2017-07-24T11:08:25.222Z,17.90
2017-07-24T11:10:52.801Z,17.90
2017-07-24T11:13:20.611Z,17.80
2017-07-24T11:15:48.217Z,17.70
2017-07-24T11:18:15.831Z,17.60
2017-07-24T11:20:43.474Z,17.60
2017-07-24T11:23:11.075Z,17.60
2017-07-24T11:25:38.664Z,17.50
2017-07-24T11:28:07.174Z,17.60
2017-07-24T11:30:34.848Z,17.70
2017-07-24T11:33:02.413Z,17.80
2017-07-24T11:35:30.022Z,17.90
2017-07-24T11:37:57.598Z,17.90
2017-07-24T11:40:25.197Z,17.80
2017-07-24T11:42:52.765Z,17.80
2017-07-24T11:45:20.412Z,17.80
2017-07-24T11:47:47.995Z,17.80
2017-07-24T11:50:15.603Z,17.80
2017-07-24T11:52:43.954Z,17.90
2017-07-24T11:55:11.541Z,17.80
2017-07-24T11:57:39.903Z,17.90
2017-07-24T12:00:07.516Z,17.90
2017-07-24T12:02:35.085Z,17.90
2017-07-24T12:05:02.687Z,18.00
2017-07-24T12:07:30.286Z,18.00
2017-07-24T12:09:57.871Z,18.10
2017-07-24T12:12:25.469Z,18.20
2017-07-24T12:14:53.066Z,18.30
2017-07-24T12:17:20.653Z,18.40
2017-07-24T12:19:48.303Z,18.30
2017-07-24T12:22:15.898Z,18.20
2017-07-24T12:24:43.510Z,18.10
2017-07-24T12:27:11.073Z,18.10
2017-07-24T12:29:38.682Z,18.00
2017-07-24T12:32:06.265Z,18.00
2017-07-24T12:34:34.642Z,17.90
2017-07-24T12:37:03.003Z,17.80
2017-07-24T12:39:31.775Z,17.70
2017-07-24T12:41:59.329Z,17.60
2017-07-24T12:44:26.898Z,17.50
2017-07-24T12:46:54.495Z,17.50
2017-07-24T12:49:22.185Z,17.40
2017-07-24T12:51:49.793Z,17.20
2017-07-24T12:54:18.160Z,15.50
2017-07-24T12:56:45.760Z,15.50
2017-07-24T12:59:13.337Z,14.90
2017-07-24T13:01:40.919Z,14.60
2017-07-24T13:04:08.509Z,14.40
2017-07-24T13:06:36.878Z,14.40
2017-07-24T13:09:05.254Z,14.30
2017-07-24T13:11:33.620Z,14.30
2017-07-24T13:14:01.209Z,14.30
2017-07-24T13:16:28.805Z,14.30
2017-07-24T13:18:56.393Z,14.30
2017-07-24T13:21:23.999Z,14.30
2017-07-24T13:23:51.909Z,14.40
2017-07-24T13:26:20.301Z,14.50
2017-07-24T13:28:47.873Z,14.50
2017-07-24T13:31:15.456Z,14.50
2017-07-24T13:33:43.039Z,14.50
2017-07-24T13:36:10.643Z,14.60
2017-07-24T13:38:38.226Z,14.70
2017-07-24T13:41:05.818Z,14.70
2017-07-24T13:43:33.500Z,14.90
2017-07-24T13:46:01.089Z,14.90
2017-07-24T13:48:29.439Z,15.00
2017-07-24T13:50:57.023Z,15.00
2017-07-24T13:53:25.368Z,15.10
2017-07-24T13:55:52.964Z,15.00
2017-07-24T13:58:21.329Z,15.20
2017-07-24T14:00:49.697Z,15.20
2017-07-24T14:03:17.267Z,15.10
2017-07-24T14:05:44.859Z,15.10
2017-07-24T14:08:12.419Z,15.20
2017-07-24T14:10:40.419Z,15.20
2017-07-24T14:13:07.992Z,15.20
2017-07-24T14:15:35.590Z,15.20
2017-07-24T14:18:03.933Z,15.30
2017-07-24T14:20:31.514Z,15.20
2017-07-24T14:22:59.906Z,15.40
2017-07-24T14:25:27.559Z,15.40
2017-07-24T14:27:55.913Z,15.60
2017-07-24T14:30:23.500Z,15.50
2017-07-24T14:32:51.078Z,15.60
2017-07-24T14:35:18.645Z,15.70
2017-07-24T14:37:46.214Z,15.70
2017-07-24T14:40:13.807Z,15.90
2017-07-24T14:42:41.548Z,16.00
2017-07-24T14:45:09.145Z,16.10
2017-07-24T14:47:37.601Z,16.40
2017-07-24T14:50:05.180Z,16.40
2017-07-24T14:52:32.763Z,16.50
2017-07-24T14:55:00.340Z,16.60
2017-07-24T14:57:27.919Z,16.70
2017-07-24T14:59:55.517Z,16.80
2017-07-24T15:02:23.102Z,16.70
2017-07-24T15:04:51.444Z,16.90
2017-07-24T15:07:19.026Z,16.80
2017-07-24T15:09:47.371Z,17.30
2017-07-24T15:12:14.995Z,17.20
2017-07-24T15:14:42.555Z,17.50
2017-07-24T15:17:10.148Z,17.90
2017-07-24T15:19:37.722Z,18.30
2017-07-24T15:22:06.193Z,18.60
2017-07-24T15:24:33.758Z,18.90
2017-07-24T15:27:01.351Z,19.00
2017-07-24T15:29:28.933Z,19.10
2017-07-24T15:31:56.513Z,19.10
2017-07-24T15:34:24.081Z,18.80
2017-07-24T15:36:51.671Z,18.50
2017-07-24T15:39:19.243Z,18.40
2017-07-24T15:41:47.188Z,18.70
2017-07-24T15:44:14.778Z,19.10
2017-07-24T15:46:42.337Z,19.30
2017-07-24T15:49:09.914Z,20.00
2017-07-24T15:51:37.470Z,20.60
2017-07-24T15:54:05.199Z,20.50
2017-07-24T15:56:33.530Z,20.00
2017-07-24T15:59:01.117Z,20.00
2017-07-24T16:01:28.697Z,21.20
2017-07-24T16:03:57.042Z,22.90
2017-07-24T16:06:24.605Z,22.80
2017-07-24T16:08:52.207Z,23.60
2017-07-24T16:11:20.543Z,24.20
2017-07-24T16:13:48.130Z,24.10
2017-07-24T16:16:16.469Z,23.60
2017-07-24T16:18:44.602Z,23.60
2017-07-24T16:21:12.197Z,23.00
2017-07-24T16:23:39.780Z,21.60
2017-07-24T16:26:07.359Z,20.60
2017-07-24T16:28:35.705Z,19.70
2017-07-24T16:31:03.292Z,19.60
2017-07-24T16:33:31.642Z,19.50
2017-07-24T16:36:00.614Z,19.50
2017-07-24T16:38:28.387Z,19.40
2017-07-24T16:40:55.964Z,19.30
2017-07-24T16:43:23.581Z,19.30
2017-07-24T16:45:51.197Z,19.30
2017-07-24T16:48:19.639Z,19.30
2017-07-24T16:50:47.215Z,19.30
2017-07-24T16:53:15.083Z,19.20
2017-07-24T16:55:42.679Z,19.20
2017-07-24T16:58:11.015Z,19.10
2017-07-24T17:00:38.618Z,19.10
2017-07-24T17:03:06.193Z,19.10
2017-07-24T17:05:33.812Z,19.10
2017-07-24T17:08:01.380Z,19.00
2017-07-24T17:10:29.756Z,18.80
2017-07-24T17:12:58.096Z,18.90
2017-07-24T17:15:25.692Z,18.90
2017-07-24T17:17:54.049Z,19.20
2017-07-24T17:20:21.932Z,19.20
2017-07-24T17:22:50.326Z,19.20
2017-07-24T17:25:17.969Z,19.20
2017-07-24T17:27:46.456Z,19.00
2017-07-24T17:30:14.821Z,18.70
2017-07-24T17:32:42.444Z,18.70
2017-07-24T17:35:10.013Z,18.40
2017-07-24T17:37:37.606Z,18.30
2017-07-24T17:40:05.182Z,18.10
2017-07-24T17:42:32.793Z,18.00
2017-07-24T17:45:00.391Z,17.80
2017-07-24T17:47:29.041Z,17.50
2017-07-24T17:49:56.616Z,17.50
2017-07-24T17:52:24.218Z,17.50
2017-07-24T17:54:51.872Z,17.40
2017-07-24T17:57:19.438Z,17.30
2017-07-24T17:59:47.016Z,17.30
2017-07-24T18:02:14.600Z,17.20
2017-07-24T18:04:42.200Z,17.10
2017-07-24T18:07:10.531Z,16.90
2017-07-24T18:09:38.117Z,16.90
2017-07-24T18:12:05.673Z,16.90
2017-07-24T18:14:33.673Z,16.80
2017-07-24T18:17:01.262Z,16.80
2017-07-24T18:19:29.066Z,16.70
2017-07-24T18:21:56.684Z,16.60
2017-07-24T18:24:24.289Z,16.40
2017-07-24T18:26:51.943Z,16.20
2017-07-24T18:29:19.572Z,16.10
2017-07-24T18:31:47.260Z,16.00
2017-07-24T18:34:14.897Z,15.80
2017-07-24T18:36:42.498Z,15.60
2017-07-24T18:39:12.497Z,15.30
2017-07-24T18:41:40.140Z,15.20
2017-07-24T18:44:08.719Z,14.70
2017-07-24T18:46:36.720Z,14.20
2017-07-24T18:49:04.317Z,13.90
2017-07-24T18:51:31.907Z,13.70
2017-07-24T18:53:59.504Z,13.50
2017-07-24T18:56:27.105Z,13.50
2017-07-24T18:58:54.768Z,13.50
2017-07-24T19:01:22.410Z,13.40
2017-07-24T19:03:50.057Z,13.40
2017-07-24T19:06:17.669Z,13.50
2017-07-24T19:08:45.324Z,13.50
2017-07-24T19:11:12.903Z,13.50
2017-07-24T19:13:40.886Z,13.40
2017-07-24T19:16:08.501Z,13.40
2017-07-24T19:18:36.092Z,13.50
2017-07-24T19:21:03.792Z,13.50
2017-07-24T19:23:32.239Z,13.40
2017-07-24T19:26:00.695Z,13.40
2017-07-24T19:28:28.300Z,13.40
2017-07-24T19:30:56.710Z,13.30
2017-07-24T19:33:24.306Z,13.30
2017-07-24T19:35:52.221Z,13.30
2017-07-24T19:38:19.870Z,13.30
2017-07-24T19:40:47.489Z,13.30
2017-07-24T19:43:15.175Z,13.30
2017-07-24T19:45:43.182Z,13.30
2017-07-24T19:48:10.813Z,13.30
2017-07-24T19:50:39.188Z,13.30
2017-07-24T19:53:07.545Z,13.30
2017-07-24T19:55:35.145Z,13.20
2017-07-24T19:58:02.777Z,13.20
2017-07-24T20:00:30.473Z,13.20
2017-07-24T20:02:58.388Z,13.20
2017-07-24T20:05:26.028Z,13.20
2017-07-24T20:07:53.673Z,13.20
2017-07-24T20:10:21.270Z,13.20
2017-07-24T20:12:48.849Z,13.20
2017-07-24T20:15:16.458Z,13.10
2017-07-24T20:17:44.080Z,13.10
2017-07-24T20:20:12.446Z,13.00
2017-07-24T20:22:40.782Z,13.00
2017-07-24T20:25:08.377Z,13.00
2017-07-24T20:27:35.925Z,13.00
2017-07-24T20:30:03.593Z,13.00
2017-07-24T20:32:31.963Z,12.90
2017-07-24T20:34:59.927Z,12.90
2017-07-24T20:37:28.299Z,12.80
2017-07-24T20:39:55.877Z,12.80
2017-07-24T20:42:23.464Z,12.80
2017-07-24T20:44:51.810Z,12.80
2017-07-24T20:47:19.406Z,12.80
2017-07-24T20:49:47.014Z,12.80
2017-07-24T20:52:14.630Z,12.90
2017-07-24T20:54:42.320Z,12.90
2017-07-24T20:57:10.211Z,12.80
2017-07-24T20:59:37.796Z,12.70
2017-07-24T21:02:06.131Z,12.70
2017-07-24T21:04:33.761Z,12.60
2017-07-24T21:07:01.410Z,12.70
2017-07-24T21:09:29.005Z,12.70
2017-07-24T21:11:56.563Z,12.70
2017-07-24T21:14:24.192Z,12.70
2017-07-24T21:16:51.778Z,12.80
2017-07-24T21:19:19.504Z,12.80
2017-07-24T21:21:49.751Z,12.80
2017-07-24T21:24:17.643Z,12.80
2017-07-24T21:26:45.217Z,12.80
2017-07-24T21:29:12.798Z,12.80
2017-07-24T21:31:40.366Z,12.80
2017-07-24T21:34:08.695Z,12.90
2017-07-24T21:36:36.264Z,12.80
2017-07-24T21:39:03.849Z,12.90
2017-07-24T21:41:32.189Z,12.80
2017-07-24T21:43:59.753Z,12.80
2017-07-24T21:46:27.705Z,12.80
2017-07-24T21:48:55.271Z,12.80
2017-07-24T21:51:22.832Z,12.80
2017-07-24T21:53:50.433Z,12.90
2017-07-24T21:56:18.776Z,12.90
2017-07-24T21:58:46.354Z,12.80
2017-07-24T22:01:13.934Z,12.80
2017-07-24T22:03:41.512Z,12.80
2017-07-24T22:06:09.070Z,12.70
2017-07-24T22:08:36.990Z,12.70
2017-07-24T22:11:04.576Z,12.70
2017-07-24T22:13:32.910Z,12.70
2017-07-24T22:16:00.485Z,12.70
2017-07-24T22:18:28.077Z,12.70
2017-07-24T22:20:56.412Z,12.70
2017-07-24T22:23:23.972Z,12.70
2017-07-24T22:25:51.538Z,12.70
2017-07-24T22:28:19.134Z,12.80
2017-07-24T22:30:46.703Z,12.90
2017-07-24T22:33:14.280Z,12.90
2017-07-24T22:35:42.166Z,13.00
2017-07-24T22:38:09.726Z,13.00
2017-07-24T22:40:37.283Z,13.00
2017-07-24T22:43:04.852Z,13.00
2017-07-24T22:45:32.416Z,13.00
2017-07-24T22:47:59.985Z,13.00
2017-07-24T22:50:27.564Z,13.00
2017-07-24T22:52:55.903Z,13.00
2017-07-24T22:55:23.470Z,13.00
2017-07-24T22:57:51.051Z,13.00
2017-07-24T23:00:18.646Z,12.90
2017-07-24T23:02:46.546Z,12.90
2017-07-24T23:05:14.125Z,12.90
2017-07-24T23:07:41.691Z,12.90
2017-07-24T23:10:09.277Z,12.90
2017-07-24T23:12:36.846Z,12.90
2017-07-24T23:15:04.448Z,12.90
2017-07-24T23:17:32.040Z,12.90
2017-07-24T23:20:00.392Z,12.90
2017-07-24T23:22:27.946Z,12.90
2017-07-24T23:24:55.823Z,12.90
2017-07-24T23:27:23.377Z,13.00
2017-07-24T23:29:50.943Z,13.00
2017-07-24T23:32:18.536Z,12.90
2017-07-24T23:34:46.107Z,12.90
2017-07-24T23:37:13.692Z,12.90
2017-07-24T23:39:41.260Z,12.90
2017-07-24T23:42:08.839Z,12.90
2017-07-24T23:44:36.403Z,12.90
2017-07-24T23:47:03.981Z,12.90
2017-07-24T23:49:32.323Z,13.00
2017-07-24T23:51:59.897Z,12.90
2017-07-24T23:54:28.222Z,13.00
2017-07-24T23:56:55.795Z,13.00
2017-07-24T23:59:23.381Z,13.00
